sensor_id;sensor_type;location;lat;lon;timestamp;P1;durP1;ratioP1;P2;durP2;ratioP2
23270;SDS011;11804;51.118;17.058;2023-02-15T00:02:03;37.50;;;20.87;;
23270;SDS011;11804;51.118;17.058;2023-02-15T00:04:31;38.67;;;19.90;;
23270;SDS011;11804;51.118;17.058;2023-02-15T00:07:14;40.50;;;20.30;;
23270;SDS011;11804;51.118;17.058;2023-02-15T00:09:42;38.80;;;19.90;;
23270;SDS011;11804;51.118;17.058;2023-02-15T00:12:13;38.97;;;19.70;;
23270;SDS011;11804;51.118;17.058;2023-02-15T00:14:42;36.53;;;19.87;;
23270;SDS011;11804;51.118;17.058;2023-02-15T00:17:10;36.80;;;18.40;;
23270;SDS011;11804;51.118;17.058;2023-02-15T00:19:38;44.73;;;21.97;;
23270;SDS011;11804;51.118;17.058;2023-02-15T00:22:06;41.87;;;21.30;;
23270;SDS011;11804;51.118;17.058;2023-02-15T00:24:34;38.93;;;20.03;;
23270;SDS011;11804;51.118;17.058;2023-02-15T00:27:02;38.13;;;20.13;;
23270;SDS011;11804;51.118;17.058;2023-02-15T00:29:29;39.13;;;20.07;;
23270;SDS011;11804;51.118;17.058;2023-02-15T00:32:00;42.37;;;20.33;;
23270;SDS011;11804;51.118;17.058;2023-02-15T00:34:27;38.60;;;21.50;;
23270;SDS011;11804;51.118;17.058;2023-02-15T00:36:55;36.53;;;20.53;;
23270;SDS011;11804;51.118;17.058;2023-02-15T00:39:23;38.07;;;20.07;;
23270;SDS011;11804;51.118;17.058;2023-02-15T00:41:53;42.67;;;20.83;;
23270;SDS011;11804;51.118;17.058;2023-02-15T00:44:20;40.20;;;21.83;;
23270;SDS011;11804;51.118;17.058;2023-02-15T00:46:48;43.13;;;21.77;;
23270;SDS011;11804;51.118;17.058;2023-02-15T00:49:15;45.63;;;21.33;;
23270;SDS011;11804;51.118;17.058;2023-02-15T00:51:43;44.90;;;22.83;;
23270;SDS011;11804;51.118;17.058;2023-02-15T00:54:10;44.23;;;23.37;;
23270;SDS011;11804;51.118;17.058;2023-02-15T00:56:38;50.23;;;22.87;;
23270;SDS011;11804;51.118;17.058;2023-02-15T00:59:06;45.73;;;23.77;;
23270;SDS011;11804;51.118;17.058;2023-02-15T01:01:35;47.73;;;23.53;;
23270;SDS011;11804;51.118;17.058;2023-02-15T01:04:02;43.63;;;22.17;;
23270;SDS011;11804;51.118;17.058;2023-02-15T01:06:31;46.13;;;22.00;;
23270;SDS011;11804;51.118;17.058;2023-02-15T01:08:59;44.07;;;22.37;;
23270;SDS011;11804;51.118;17.058;2023-02-15T01:11:27;45.93;;;23.67;;
23270;SDS011;11804;51.118;17.058;2023-02-15T01:13:56;44.43;;;22.80;;
23270;SDS011;11804;51.118;17.058;2023-02-15T01:16:25;45.07;;;23.17;;
23270;SDS011;11804;51.118;17.058;2023-02-15T01:18:54;45.10;;;23.47;;
23270;SDS011;11804;51.118;17.058;2023-02-15T01:21:23;46.27;;;23.20;;
23270;SDS011;11804;51.118;17.058;2023-02-15T01:23:52;45.23;;;22.30;;
23270;SDS011;11804;51.118;17.058;2023-02-15T01:26:20;47.63;;;24.13;;
23270;SDS011;11804;51.118;17.058;2023-02-15T01:28:48;49.47;;;25.23;;
23270;SDS011;11804;51.118;17.058;2023-02-15T01:31:17;49.27;;;24.40;;
23270;SDS011;11804;51.118;17.058;2023-02-15T01:33:48;50.43;;;24.90;;
23270;SDS011;11804;51.118;17.058;2023-02-15T01:36:15;54.43;;;27.17;;
23270;SDS011;11804;51.118;17.058;2023-02-15T01:38:43;54.27;;;26.60;;
23270;SDS011;11804;51.118;17.058;2023-02-15T01:41:11;51.63;;;26.30;;
23270;SDS011;11804;51.118;17.058;2023-02-15T01:43:53;55.53;;;26.57;;
23270;SDS011;11804;51.118;17.058;2023-02-15T01:46:24;53.70;;;27.53;;
23270;SDS011;11804;51.118;17.058;2023-02-15T01:49:08;55.30;;;28.63;;
23270;SDS011;11804;51.118;17.058;2023-02-15T01:51:35;53.13;;;27.77;;
23270;SDS011;11804;51.118;17.058;2023-02-15T01:54:07;59.23;;;28.30;;
23270;SDS011;11804;51.118;17.058;2023-02-15T01:56:36;55.13;;;27.53;;
23270;SDS011;11804;51.118;17.058;2023-02-15T01:59:08;54.03;;;27.33;;
23270;SDS011;11804;51.118;17.058;2023-02-15T02:01:39;52.03;;;27.30;;
23270;SDS011;11804;51.118;17.058;2023-02-15T02:06:47;51.37;;;26.77;;
23270;SDS011;11804;51.118;17.058;2023-02-15T02:09:17;60.47;;;29.57;;
23270;SDS011;11804;51.118;17.058;2023-02-15T02:11:45;61.83;;;28.93;;
23270;SDS011;11804;51.118;17.058;2023-02-15T02:14:14;59.87;;;29.17;;
23270;SDS011;11804;51.118;17.058;2023-02-15T02:16:47;57.10;;;27.33;;
23270;SDS011;11804;51.118;17.058;2023-02-15T02:31:00;62.73;;;30.17;;
23270;SDS011;11804;51.118;17.058;2023-02-15T02:33:28;59.83;;;29.93;;
23270;SDS011;11804;51.118;17.058;2023-02-15T02:36:06;62.53;;;29.77;;
23270;SDS011;11804;51.118;17.058;2023-02-15T02:41:13;60.40;;;29.93;;
23270;SDS011;11804;51.118;17.058;2023-02-15T02:46:26;64.03;;;31.17;;
23270;SDS011;11804;51.118;17.058;2023-02-15T02:48:55;59.50;;;29.70;;
23270;SDS011;11804;51.118;17.058;2023-02-15T02:51:23;54.43;;;30.83;;
23270;SDS011;11804;51.118;17.058;2023-02-15T02:53:51;57.70;;;30.17;;
23270;SDS011;11804;51.118;17.058;2023-02-15T02:56:32;63.83;;;29.60;;
23270;SDS011;11804;51.118;17.058;2023-02-15T02:59:00;63.87;;;30.43;;
23270;SDS011;11804;51.118;17.058;2023-02-15T03:01:35;60.83;;;30.57;;
23270;SDS011;11804;51.118;17.058;2023-02-15T03:04:05;65.43;;;31.93;;
23270;SDS011;11804;51.118;17.058;2023-02-15T03:09:18;65.60;;;31.17;;
23270;SDS011;11804;51.118;17.058;2023-02-15T03:11:47;60.17;;;30.30;;
23270;SDS011;11804;51.118;17.058;2023-02-15T03:14:15;61.53;;;31.17;;
23270;SDS011;11804;51.118;17.058;2023-02-15T03:16:46;59.23;;;30.13;;
23270;SDS011;11804;51.118;17.058;2023-02-15T03:19:16;70.33;;;32.10;;
23270;SDS011;11804;51.118;17.058;2023-02-15T03:21:51;60.27;;;30.50;;
23270;SDS011;11804;51.118;17.058;2023-02-15T03:24:27;63.47;;;33.17;;
23270;SDS011;11804;51.118;17.058;2023-02-15T03:26:56;66.37;;;31.87;;
23270;SDS011;11804;51.118;17.058;2023-02-15T03:29:25;60.90;;;31.90;;
23270;SDS011;11804;51.118;17.058;2023-02-15T03:31:57;65.10;;;31.30;;
23270;SDS011;11804;51.118;17.058;2023-02-15T03:34:25;60.03;;;30.40;;
23270;SDS011;11804;51.118;17.058;2023-02-15T03:37:05;62.50;;;32.97;;
23270;SDS011;11804;51.118;17.058;2023-02-15T03:39:42;62.87;;;31.70;;
23270;SDS011;11804;51.118;17.058;2023-02-15T03:42:22;65.20;;;32.07;;
23270;SDS011;11804;51.118;17.058;2023-02-15T03:45:04;60.90;;;30.93;;
23270;SDS011;11804;51.118;17.058;2023-02-15T03:47:31;65.40;;;31.07;;
23270;SDS011;11804;51.118;17.058;2023-02-15T03:50:08;62.23;;;31.50;;
23270;SDS011;11804;51.118;17.058;2023-02-15T03:52:54;58.30;;;30.70;;
23270;SDS011;11804;51.118;17.058;2023-02-15T03:55:24;61.97;;;31.30;;
23270;SDS011;11804;51.118;17.058;2023-02-15T03:57:52;64.37;;;30.73;;
23270;SDS011;11804;51.118;17.058;2023-02-15T04:00:38;60.23;;;29.63;;
23270;SDS011;11804;51.118;17.058;2023-02-15T04:03:32;60.73;;;30.27;;
23270;SDS011;11804;51.118;17.058;2023-02-15T04:06:00;59.97;;;30.23;;
23270;SDS011;11804;51.118;17.058;2023-02-15T04:08:30;60.20;;;31.77;;
23270;SDS011;11804;51.118;17.058;2023-02-15T04:11:17;60.30;;;30.00;;
23270;SDS011;11804;51.118;17.058;2023-02-15T04:13:45;54.80;;;30.33;;
23270;SDS011;11804;51.118;17.058;2023-02-15T04:16:12;62.73;;;30.00;;
23270;SDS011;11804;51.118;17.058;2023-02-15T04:18:40;62.80;;;30.03;;
23270;SDS011;11804;51.118;17.058;2023-02-15T04:21:28;64.33;;;31.93;;
23270;SDS011;11804;51.118;17.058;2023-02-15T04:24:15;61.23;;;30.10;;
23270;SDS011;11804;51.118;17.058;2023-02-15T04:27:01;59.83;;;31.13;;
23270;SDS011;11804;51.118;17.058;2023-02-15T04:29:30;57.97;;;30.93;;
23270;SDS011;11804;51.118;17.058;2023-02-15T04:31:59;59.80;;;30.67;;
23270;SDS011;11804;51.118;17.058;2023-02-15T04:34:28;57.27;;;29.73;;
23270;SDS011;11804;51.118;17.058;2023-02-15T04:36:55;59.33;;;29.50;;
23270;SDS011;11804;51.118;17.058;2023-02-15T04:39:23;57.20;;;29.73;;
23270;SDS011;11804;51.118;17.058;2023-02-15T04:41:50;57.97;;;30.63;;
23270;SDS011;11804;51.118;17.058;2023-02-15T04:44:18;59.60;;;32.43;;
23270;SDS011;11804;51.118;17.058;2023-02-15T04:46:46;62.67;;;31.50;;
23270;SDS011;11804;51.118;17.058;2023-02-15T04:49:13;52.63;;;29.47;;
23270;SDS011;11804;51.118;17.058;2023-02-15T04:51:41;57.40;;;30.80;;
23270;SDS011;11804;51.118;17.058;2023-02-15T04:54:08;58.33;;;28.63;;
23270;SDS011;11804;51.118;17.058;2023-02-15T04:56:36;54.33;;;27.37;;
23270;SDS011;11804;51.118;17.058;2023-02-15T04:59:05;52.60;;;26.93;;
23270;SDS011;11804;51.118;17.058;2023-02-15T05:01:32;50.27;;;26.10;;
23270;SDS011;11804;51.118;17.058;2023-02-15T05:04:00;55.80;;;27.73;;
23270;SDS011;11804;51.118;17.058;2023-02-15T05:06:28;50.23;;;27.00;;
23270;SDS011;11804;51.118;17.058;2023-02-15T05:08:56;49.63;;;26.43;;
23270;SDS011;11804;51.118;17.058;2023-02-15T05:11:25;47.93;;;25.87;;
23270;SDS011;11804;51.118;17.058;2023-02-15T05:13:53;55.73;;;27.77;;
23270;SDS011;11804;51.118;17.058;2023-02-15T05:16:20;68.83;;;27.20;;
23270;SDS011;11804;51.118;17.058;2023-02-15T05:18:48;58.47;;;28.73;;
23270;SDS011;11804;51.118;17.058;2023-02-15T05:21:15;49.87;;;27.30;;
23270;SDS011;11804;51.118;17.058;2023-02-15T05:23:43;56.17;;;29.13;;
23270;SDS011;11804;51.118;17.058;2023-02-15T05:26:12;56.27;;;28.43;;
23270;SDS011;11804;51.118;17.058;2023-02-15T05:29:00;55.37;;;27.80;;
23270;SDS011;11804;51.118;17.058;2023-02-15T05:31:27;53.30;;;27.80;;
23270;SDS011;11804;51.118;17.058;2023-02-15T05:33:56;54.93;;;28.10;;
23270;SDS011;11804;51.118;17.058;2023-02-15T05:36:24;57.80;;;26.97;;
23270;SDS011;11804;51.118;17.058;2023-02-15T05:38:52;52.93;;;27.93;;
23270;SDS011;11804;51.118;17.058;2023-02-15T05:41:19;56.47;;;28.70;;
23270;SDS011;11804;51.118;17.058;2023-02-15T05:43:47;53.17;;;28.47;;
23270;SDS011;11804;51.118;17.058;2023-02-15T05:46:15;55.63;;;27.20;;
23270;SDS011;11804;51.118;17.058;2023-02-15T05:48:43;52.10;;;27.23;;
23270;SDS011;11804;51.118;17.058;2023-02-15T05:51:12;57.60;;;29.40;;
23270;SDS011;11804;51.118;17.058;2023-02-15T05:53:41;56.03;;;27.87;;
23270;SDS011;11804;51.118;17.058;2023-02-15T05:56:09;55.07;;;28.73;;
23270;SDS011;11804;51.118;17.058;2023-02-15T05:58:38;54.23;;;28.00;;
23270;SDS011;11804;51.118;17.058;2023-02-15T06:01:11;55.93;;;29.03;;
23270;SDS011;11804;51.118;17.058;2023-02-15T06:03:43;58.13;;;28.97;;
23270;SDS011;11804;51.118;17.058;2023-02-15T06:06:12;57.80;;;29.57;;
23270;SDS011;11804;51.118;17.058;2023-02-15T06:08:40;58.17;;;30.47;;
23270;SDS011;11804;51.118;17.058;2023-02-15T06:11:08;61.83;;;29.93;;
23270;SDS011;11804;51.118;17.058;2023-02-15T06:13:36;58.70;;;29.23;;
23270;SDS011;11804;51.118;17.058;2023-02-15T06:16:04;59.03;;;29.83;;
23270;SDS011;11804;51.118;17.058;2023-02-15T06:18:33;55.50;;;28.70;;
23270;SDS011;11804;51.118;17.058;2023-02-15T06:21:00;59.30;;;29.23;;
23270;SDS011;11804;51.118;17.058;2023-02-15T06:23:28;60.20;;;30.33;;
23270;SDS011;11804;51.118;17.058;2023-02-15T06:25:56;57.57;;;29.87;;
23270;SDS011;11804;51.118;17.058;2023-02-15T06:28:23;60.47;;;30.77;;
23270;SDS011;11804;51.118;17.058;2023-02-15T06:30:51;61.37;;;29.73;;
23270;SDS011;11804;51.118;17.058;2023-02-15T06:33:19;55.50;;;29.13;;
23270;SDS011;11804;51.118;17.058;2023-02-15T06:35:48;56.80;;;29.33;;
23270;SDS011;11804;51.118;17.058;2023-02-15T06:38:16;58.90;;;29.67;;
23270;SDS011;11804;51.118;17.058;2023-02-15T06:40:45;63.77;;;31.13;;
23270;SDS011;11804;51.118;17.058;2023-02-15T06:43:13;58.53;;;29.13;;
23270;SDS011;11804;51.118;17.058;2023-02-15T06:45:42;62.30;;;30.47;;
23270;SDS011;11804;51.118;17.058;2023-02-15T06:48:09;58.27;;;30.40;;
23270;SDS011;11804;51.118;17.058;2023-02-15T06:50:37;54.23;;;28.77;;
23270;SDS011;11804;51.118;17.058;2023-02-15T06:53:05;51.93;;;28.27;;
23270;SDS011;11804;51.118;17.058;2023-02-15T06:55:32;57.97;;;28.83;;
23270;SDS011;11804;51.118;17.058;2023-02-15T06:58:00;56.80;;;29.23;;
23270;SDS011;11804;51.118;17.058;2023-02-15T07:00:29;59.93;;;30.30;;
23270;SDS011;11804;51.118;17.058;2023-02-15T07:02:57;59.17;;;30.37;;
23270;SDS011;11804;51.118;17.058;2023-02-15T07:05:26;63.57;;;29.50;;
23270;SDS011;11804;51.118;17.058;2023-02-15T07:07:58;55.00;;;28.37;;
23270;SDS011;11804;51.118;17.058;2023-02-15T07:10:27;58.10;;;28.63;;
23270;SDS011;11804;51.118;17.058;2023-02-15T07:12:55;55.17;;;28.70;;
23270;SDS011;11804;51.118;17.058;2023-02-15T07:15:23;53.73;;;27.73;;
23270;SDS011;11804;51.118;17.058;2023-02-15T07:17:51;54.97;;;28.77;;
23270;SDS011;11804;51.118;17.058;2023-02-15T07:20:19;50.33;;;26.40;;
23270;SDS011;11804;51.118;17.058;2023-02-15T07:22:48;50.60;;;27.50;;
23270;SDS011;11804;51.118;17.058;2023-02-15T07:25:17;51.60;;;27.33;;
23270;SDS011;11804;51.118;17.058;2023-02-15T07:27:45;53.30;;;27.00;;
23270;SDS011;11804;51.118;17.058;2023-02-15T07:30:13;53.20;;;27.83;;
23270;SDS011;11804;51.118;17.058;2023-02-15T07:32:41;56.13;;;28.90;;
23270;SDS011;11804;51.118;17.058;2023-02-15T07:35:27;55.30;;;28.57;;
23270;SDS011;11804;51.118;17.058;2023-02-15T07:37:55;55.30;;;30.87;;
23270;SDS011;11804;51.118;17.058;2023-02-15T07:40:22;50.53;;;27.23;;
23270;SDS011;11804;51.118;17.058;2023-02-15T07:42:50;56.70;;;29.83;;
23270;SDS011;11804;51.118;17.058;2023-02-15T07:45:20;59.83;;;32.33;;
23270;SDS011;11804;51.118;17.058;2023-02-15T07:47:48;64.27;;;32.67;;
23270;SDS011;11804;51.118;17.058;2023-02-15T07:50:15;57.50;;;30.03;;
23270;SDS011;11804;51.118;17.058;2023-02-15T07:52:43;54.97;;;28.20;;
23270;SDS011;11804;51.118;17.058;2023-02-15T07:55:11;64.07;;;32.47;;
23270;SDS011;11804;51.118;17.058;2023-02-15T07:57:42;59.27;;;30.70;;
23270;SDS011;11804;51.118;17.058;2023-02-15T08:00:18;61.10;;;31.27;;
23270;SDS011;11804;51.118;17.058;2023-02-15T08:02:49;72.83;;;36.97;;
23270;SDS011;11804;51.118;17.058;2023-02-15T08:05:20;58.77;;;30.27;;
23270;SDS011;11804;51.118;17.058;2023-02-15T08:07:47;57.70;;;30.57;;
23270;SDS011;11804;51.118;17.058;2023-02-15T08:10:15;53.67;;;28.10;;
23270;SDS011;11804;51.118;17.058;2023-02-15T08:12:44;56.63;;;29.20;;
23270;SDS011;11804;51.118;17.058;2023-02-15T08:15:12;57.00;;;29.10;;
23270;SDS011;11804;51.118;17.058;2023-02-15T08:17:39;52.60;;;28.53;;
23270;SDS011;11804;51.118;17.058;2023-02-15T08:20:07;61.27;;;28.80;;
23270;SDS011;11804;51.118;17.058;2023-02-15T08:22:35;54.83;;;28.33;;
23270;SDS011;11804;51.118;17.058;2023-02-15T08:25:03;55.77;;;28.40;;
23270;SDS011;11804;51.118;17.058;2023-02-15T08:27:31;48.30;;;26.57;;
23270;SDS011;11804;51.118;17.058;2023-02-15T08:29:59;49.80;;;25.73;;
23270;SDS011;11804;51.118;17.058;2023-02-15T08:32:26;46.00;;;25.83;;
23270;SDS011;11804;51.118;17.058;2023-02-15T08:34:54;47.57;;;26.50;;
23270;SDS011;11804;51.118;17.058;2023-02-15T08:37:22;46.80;;;25.07;;
23270;SDS011;11804;51.118;17.058;2023-02-15T08:39:49;55.20;;;28.53;;
23270;SDS011;11804;51.118;17.058;2023-02-15T08:42:17;58.07;;;26.77;;
23270;SDS011;11804;51.118;17.058;2023-02-15T08:44:46;40.17;;;22.83;;
23270;SDS011;11804;51.118;17.058;2023-02-15T08:47:15;38.17;;;23.27;;
23270;SDS011;11804;51.118;17.058;2023-02-15T08:49:43;39.90;;;22.40;;
23270;SDS011;11804;51.118;17.058;2023-02-15T08:52:11;33.30;;;22.23;;
23270;SDS011;11804;51.118;17.058;2023-02-15T08:54:38;33.63;;;21.53;;
23270;SDS011;11804;51.118;17.058;2023-02-15T08:57:06;33.00;;;21.53;;
23270;SDS011;11804;51.118;17.058;2023-02-15T08:59:35;32.67;;;21.00;;
23270;SDS011;11804;51.118;17.058;2023-02-15T09:02:02;32.83;;;22.53;;
23270;SDS011;11804;51.118;17.058;2023-02-15T09:04:30;35.23;;;23.30;;
23270;SDS011;11804;51.118;17.058;2023-02-15T09:06:59;36.70;;;21.83;;
23270;SDS011;11804;51.118;17.058;2023-02-15T09:09:26;32.73;;;21.57;;
23270;SDS011;11804;51.118;17.058;2023-02-15T09:11:54;39.90;;;22.27;;
23270;SDS011;11804;51.118;17.058;2023-02-15T09:14:21;37.53;;;22.67;;
23270;SDS011;11804;51.118;17.058;2023-02-15T09:16:51;34.63;;;22.97;;
23270;SDS011;11804;51.118;17.058;2023-02-15T09:19:20;33.50;;;22.60;;
23270;SDS011;11804;51.118;17.058;2023-02-15T09:21:49;35.57;;;23.07;;
23270;SDS011;11804;51.118;17.058;2023-02-15T09:24:17;29.10;;;21.80;;
23270;SDS011;11804;51.118;17.058;2023-02-15T09:26:46;32.27;;;22.90;;
23270;SDS011;11804;51.118;17.058;2023-02-15T09:29:15;41.13;;;24.87;;
23270;SDS011;11804;51.118;17.058;2023-02-15T09:31:45;33.83;;;22.97;;
23270;SDS011;11804;51.118;17.058;2023-02-15T09:34:15;34.77;;;24.03;;
23270;SDS011;11804;51.118;17.058;2023-02-15T09:36:44;32.03;;;22.87;;
23270;SDS011;11804;51.118;17.058;2023-02-15T09:39:18;34.53;;;24.27;;
23270;SDS011;11804;51.118;17.058;2023-02-15T09:44:56;35.17;;;23.40;;
23270;SDS011;11804;51.118;17.058;2023-02-15T09:58:43;34.73;;;22.87;;
23270;SDS011;11804;51.118;17.058;2023-02-15T10:06:42;35.87;;;22.57;;
23270;SDS011;11804;51.118;17.058;2023-02-15T10:15:03;30.67;;;22.00;;
23270;SDS011;11804;51.118;17.058;2023-02-15T10:28:33;34.83;;;22.77;;
23270;SDS011;11804;51.118;17.058;2023-02-15T10:31:13;35.63;;;23.63;;
23270;SDS011;11804;51.118;17.058;2023-02-15T10:33:58;38.27;;;24.13;;
23270;SDS011;11804;51.118;17.058;2023-02-15T10:47:12;34.63;;;22.37;;
23270;SDS011;11804;51.118;17.058;2023-02-15T10:49:42;34.60;;;23.77;;
23270;SDS011;11804;51.118;17.058;2023-02-15T10:55:16;39.80;;;22.67;;
23270;SDS011;11804;51.118;17.058;2023-02-15T11:00:41;33.93;;;20.87;;
23270;SDS011;11804;51.118;17.058;2023-02-15T11:06:17;34.63;;;20.50;;
23270;SDS011;11804;51.118;17.058;2023-02-15T11:08:54;32.00;;;21.07;;
23270;SDS011;11804;51.118;17.058;2023-02-15T11:11:29;39.37;;;25.70;;
23270;SDS011;11804;51.118;17.058;2023-02-15T11:14:02;34.67;;;20.13;;
23270;SDS011;11804;51.118;17.058;2023-02-15T11:16:32;33.17;;;21.43;;
23270;SDS011;11804;51.118;17.058;2023-02-15T11:19:17;34.90;;;22.17;;
23270;SDS011;11804;51.118;17.058;2023-02-15T11:21:52;38.03;;;21.43;;
23270;SDS011;11804;51.118;17.058;2023-02-15T11:24:21;34.43;;;22.07;;
23270;SDS011;11804;51.118;17.058;2023-02-15T11:26:53;34.73;;;21.17;;
23270;SDS011;11804;51.118;17.058;2023-02-15T11:29:40;37.90;;;23.23;;
23270;SDS011;11804;51.118;17.058;2023-02-15T11:32:23;39.27;;;22.53;;
23270;SDS011;11804;51.118;17.058;2023-02-15T11:37:25;51.37;;;24.10;;
23270;SDS011;11804;51.118;17.058;2023-02-15T11:39:57;45.33;;;23.10;;
23270;SDS011;11804;51.118;17.058;2023-02-15T11:42:26;43.80;;;26.00;;
23270;SDS011;11804;51.118;17.058;2023-02-15T11:44:58;37.73;;;23.10;;
23270;SDS011;11804;51.118;17.058;2023-02-15T11:47:35;35.97;;;22.53;;
23270;SDS011;11804;51.118;17.058;2023-02-15T11:50:03;37.40;;;22.27;;
23270;SDS011;11804;51.118;17.058;2023-02-15T11:52:33;44.90;;;23.53;;
23270;SDS011;11804;51.118;17.058;2023-02-15T11:55:00;39.10;;;23.67;;
23270;SDS011;11804;51.118;17.058;2023-02-15T11:57:31;44.30;;;24.83;;
23270;SDS011;11804;51.118;17.058;2023-02-15T12:02:43;40.13;;;24.00;;
23270;SDS011;11804;51.118;17.058;2023-02-15T12:05:13;41.90;;;25.10;;
23270;SDS011;11804;51.118;17.058;2023-02-15T12:07:49;46.93;;;23.90;;
23270;SDS011;11804;51.118;17.058;2023-02-15T12:10:36;70.93;;;33.10;;
23270;SDS011;11804;51.118;17.058;2023-02-15T12:13:09;50.73;;;26.43;;
23270;SDS011;11804;51.118;17.058;2023-02-15T12:15:40;46.53;;;27.27;;
23270;SDS011;11804;51.118;17.058;2023-02-15T12:18:27;45.23;;;27.63;;
23270;SDS011;11804;51.118;17.058;2023-02-15T12:21:12;47.60;;;27.00;;
23270;SDS011;11804;51.118;17.058;2023-02-15T12:23:48;45.73;;;24.90;;
23270;SDS011;11804;51.118;17.058;2023-02-15T12:26:25;43.50;;;24.87;;
23270;SDS011;11804;51.118;17.058;2023-02-15T12:28:56;45.13;;;24.77;;
23270;SDS011;11804;51.118;17.058;2023-02-15T12:31:39;42.30;;;23.97;;
23270;SDS011;11804;51.118;17.058;2023-02-15T12:34:20;42.50;;;26.20;;
23270;SDS011;11804;51.118;17.058;2023-02-15T12:36:42;44.53;;;24.67;;
23270;SDS011;11804;51.118;17.058;2023-02-15T12:39:18;42.73;;;24.47;;
23270;SDS011;11804;51.118;17.058;2023-02-15T12:44:25;42.80;;;25.27;;
23270;SDS011;11804;51.118;17.058;2023-02-15T12:47:05;48.50;;;26.30;;
23270;SDS011;11804;51.118;17.058;2023-02-15T12:49:44;43.17;;;24.97;;
23270;SDS011;11804;51.118;17.058;2023-02-15T12:54:49;39.97;;;24.23;;
23270;SDS011;11804;51.118;17.058;2023-02-15T13:00:02;40.53;;;23.67;;
23270;SDS011;11804;51.118;17.058;2023-02-15T13:02:37;43.17;;;23.73;;
23270;SDS011;11804;51.118;17.058;2023-02-15T13:05:29;47.93;;;26.03;;
23270;SDS011;11804;51.118;17.058;2023-02-15T13:08:10;36.97;;;21.40;;
23270;SDS011;11804;51.118;17.058;2023-02-15T13:10:56;36.47;;;22.20;;
23270;SDS011;11804;51.118;17.058;2023-02-15T13:13:29;39.97;;;22.97;;
23270;SDS011;11804;51.118;17.058;2023-02-15T13:16:07;39.13;;;23.17;;
23270;SDS011;11804;51.118;17.058;2023-02-15T13:18:40;36.30;;;22.03;;
23270;SDS011;11804;51.118;17.058;2023-02-15T13:23:39;43.07;;;23.97;;
23270;SDS011;11804;51.118;17.058;2023-02-15T13:26:10;40.57;;;24.77;;
23270;SDS011;11804;51.118;17.058;2023-02-15T13:28:44;39.13;;;23.57;;
23270;SDS011;11804;51.118;17.058;2023-02-15T13:31:11;38.63;;;22.37;;
23270;SDS011;11804;51.118;17.058;2023-02-15T13:33:48;46.27;;;24.33;;
23270;SDS011;11804;51.118;17.058;2023-02-15T13:36:26;39.90;;;22.33;;
23270;SDS011;11804;51.118;17.058;2023-02-15T13:39:26;37.57;;;21.83;;
23270;SDS011;11804;51.118;17.058;2023-02-15T13:42:26;35.30;;;21.93;;
23270;SDS011;11804;51.118;17.058;2023-02-15T13:56:44;34.93;;;21.87;;
23270;SDS011;11804;51.118;17.058;2023-02-15T13:59:31;36.53;;;21.70;;
23270;SDS011;11804;51.118;17.058;2023-02-15T14:08:21;41.20;;;22.37;;
23270;SDS011;11804;51.118;17.058;2023-02-15T14:19:40;37.93;;;21.70;;
23270;SDS011;11804;51.118;17.058;2023-02-15T14:22:22;37.73;;;22.77;;
23270;SDS011;11804;51.118;17.058;2023-02-15T14:30:49;41.70;;;23.07;;
23270;SDS011;11804;51.118;17.058;2023-02-15T14:35:56;41.17;;;23.83;;
23270;SDS011;11804;51.118;17.058;2023-02-15T14:38:42;44.83;;;22.80;;
23270;SDS011;11804;51.118;17.058;2023-02-15T14:44:08;37.97;;;22.50;;
23270;SDS011;11804;51.118;17.058;2023-02-15T14:46:58;43.50;;;23.43;;
23270;SDS011;11804;51.118;17.058;2023-02-15T14:49:27;37.53;;;21.50;;
23270;SDS011;11804;51.118;17.058;2023-02-15T14:52:05;36.97;;;22.57;;
23270;SDS011;11804;51.118;17.058;2023-02-15T15:08:05;43.23;;;22.23;;
23270;SDS011;11804;51.118;17.058;2023-02-15T15:12:56;40.90;;;22.90;;
23270;SDS011;11804;51.118;17.058;2023-02-15T15:18:04;53.67;;;25.97;;
23270;SDS011;11804;51.118;17.058;2023-02-15T15:25:50;38.80;;;22.60;;
23270;SDS011;11804;51.118;17.058;2023-02-15T15:37:05;40.90;;;22.97;;
23270;SDS011;11804;51.118;17.058;2023-02-15T15:42:43;39.90;;;23.00;;
23270;SDS011;11804;51.118;17.058;2023-02-15T15:48:06;39.00;;;23.00;;
23270;SDS011;11804;51.118;17.058;2023-02-15T15:50:51;46.73;;;23.10;;
23270;SDS011;11804;51.118;17.058;2023-02-15T15:53:23;42.40;;;23.30;;
23270;SDS011;11804;51.118;17.058;2023-02-15T15:55:55;43.43;;;24.73;;
23270;SDS011;11804;51.118;17.058;2023-02-15T15:58:23;37.70;;;22.50;;
23270;SDS011;11804;51.118;17.058;2023-02-15T16:00:52;40.43;;;22.50;;
23270;SDS011;11804;51.118;17.058;2023-02-15T16:03:29;42.67;;;22.23;;
23270;SDS011;11804;51.118;17.058;2023-02-15T16:05:57;47.80;;;24.03;;
23270;SDS011;11804;51.118;17.058;2023-02-15T16:08:30;40.30;;;21.97;;
23270;SDS011;11804;51.118;17.058;2023-02-15T16:11:10;40.27;;;22.13;;
23270;SDS011;11804;51.118;17.058;2023-02-15T16:13:39;42.77;;;22.60;;
23270;SDS011;11804;51.118;17.058;2023-02-15T16:16:11;38.30;;;22.77;;
23270;SDS011;11804;51.118;17.058;2023-02-15T16:18:39;41.73;;;22.60;;
23270;SDS011;11804;51.118;17.058;2023-02-15T16:21:13;40.17;;;23.10;;
23270;SDS011;11804;51.118;17.058;2023-02-15T16:23:49;37.17;;;20.97;;
23270;SDS011;11804;51.118;17.058;2023-02-15T16:26:21;44.17;;;22.57;;
23270;SDS011;11804;51.118;17.058;2023-02-15T16:29:12;48.07;;;22.93;;
23270;SDS011;11804;51.118;17.058;2023-02-15T16:32:05;42.80;;;22.87;;
23270;SDS011;11804;51.118;17.058;2023-02-15T16:34:50;46.53;;;23.37;;
23270;SDS011;11804;51.118;17.058;2023-02-15T16:37:21;45.80;;;23.03;;
23270;SDS011;11804;51.118;17.058;2023-02-15T16:39:53;39.97;;;22.37;;
23270;SDS011;11804;51.118;17.058;2023-02-15T16:42:21;42.30;;;21.67;;
23270;SDS011;11804;51.118;17.058;2023-02-15T16:44:51;40.30;;;21.80;;
23270;SDS011;11804;51.118;17.058;2023-02-15T16:47:31;39.00;;;22.37;;
23270;SDS011;11804;51.118;17.058;2023-02-15T16:49:58;49.80;;;23.73;;
23270;SDS011;11804;51.118;17.058;2023-02-15T16:52:27;43.77;;;23.10;;
23270;SDS011;11804;51.118;17.058;2023-02-15T16:54:57;50.17;;;24.80;;
23270;SDS011;11804;51.118;17.058;2023-02-15T16:57:29;52.13;;;25.23;;
23270;SDS011;11804;51.118;17.058;2023-02-15T17:00:07;44.80;;;25.17;;
23270;SDS011;11804;51.118;17.058;2023-02-15T17:02:33;53.63;;;25.73;;
23270;SDS011;11804;51.118;17.058;2023-02-15T17:05:04;55.03;;;27.63;;
23270;SDS011;11804;51.118;17.058;2023-02-15T17:07:32;49.90;;;27.50;;
23270;SDS011;11804;51.118;17.058;2023-02-15T17:09:59;51.83;;;28.30;;
23270;SDS011;11804;51.118;17.058;2023-02-15T17:12:43;53.80;;;28.27;;
23270;SDS011;11804;51.118;17.058;2023-02-15T17:15:25;45.20;;;24.40;;
23270;SDS011;11804;51.118;17.058;2023-02-15T17:18:04;54.80;;;29.10;;
23270;SDS011;11804;51.118;17.058;2023-02-15T17:20:35;57.10;;;28.57;;
23270;SDS011;11804;51.118;17.058;2023-02-15T17:23:06;58.77;;;29.70;;
23270;SDS011;11804;51.118;17.058;2023-02-15T17:25:39;60.63;;;31.90;;